Time;durP1;ratioP1;P1;durP2;ratioP2;P2;SDS_P1;SDS_P2;PMS_P1;PMS_P2;Temp;Humidity;BMP_temperature;BMP_pressure;BME280_temperature;BME280_humidity;BME280_pressure;Samples;Min_cycle;Max_cycle;Signal;HPM_P1;HPM_P2
2022/04/24 00:00:50;;;;;;;8.32;5.80;;;14.00;48.20;;;;;;2583937;52;21015;-83
2022/04/24 00:03:17;;;;;;;9.82;6.70;;;14.00;48.30;;;;;;2338998;53;20963;-83
2022/04/24 00:05:44;;;;;;;8.57;5.68;;;14.00;48.30;;;;;;2590594;52;21023;-84
2022/04/24 00:08:11;;;;;;;8.13;5.87;;;14.00;48.40;;;;;;2580761;52;20952;-84
2022/04/24 00:10:38;;;;;;;9.75;6.82;;;14.00;48.50;;;;;;2562422;52;20911;-84
2022/04/24 00:13:05;;;;;;;10.90;7.25;;;14.00;48.60;;;;;;2583268;52;20947;-83
2022/04/24 00:15:31;;;;;;;8.60;5.75;;;14.00;48.70;;;;;;2579690;52;20920;-84
2022/04/24 00:17:57;;;;;;;9.93;6.12;;;14.00;48.80;;;;;;2579313;52;20951;-83
2022/04/24 00:20:24;;;;;;;8.50;6.12;;;14.00;48.80;;;;;;2584637;52;20983;-83
2022/04/24 00:22:51;;;;;;;7.60;5.30;;;14.00;48.80;;;;;;2588197;53;20955;-82
2022/04/24 00:25:17;;;;;;;7.95;5.78;;;14.00;48.80;;;;;;2568787;52;21054;-84
2022/04/24 00:27:44;;;;;;;7.85;5.35;;;14.00;48.90;;;;;;2352553;53;20945;-83
2022/04/24 00:30:12;;;;;;;8.27;5.80;;;14.00;48.90;;;;;;2333699;53;20965;-84
2022/04/24 00:32:38;;;;;;;8.80;6.35;;;14.10;49.60;;;;;;2583114;52;21235;-83
2022/04/24 00:35:05;;;;;;;8.18;5.45;;;14.10;49.00;;;;;;2581376;52;20971;-83
2022/04/24 00:37:32;;;;;;;7.65;5.65;;;14.10;49.00;;;;;;2595314;52;20925;-83
2022/04/24 00:39:58;;;;;;;12.37;6.37;;;14.10;49.00;;;;;;2567805;52;20939;-84
2022/04/24 00:42:25;;;;;;;7.93;5.50;;;14.10;49.10;;;;;;2573433;52;21035;-84
2022/04/24 00:44:51;;;;;;;7.35;5.45;;;14.10;49.20;;;;;;2344830;53;21853;-84
2022/04/24 00:47:18;;;;;;;7.75;5.78;;;14.10;49.20;;;;;;2582152;52;20961;-84
2022/04/24 00:49:45;;;;;;;8.90;5.82;;;14.10;49.30;;;;;;2595200;52;20932;-84
2022/04/24 00:52:11;;;;;;;7.50;5.53;;;14.10;49.40;;;;;;2568762;52;21753;-83
2022/04/24 00:54:38;;;;;;;7.87;5.50;;;14.10;49.40;;;;;;2584508;52;21267;-83
2022/04/24 00:57:08;;;;;;;7.53;5.70;;;14.20;49.40;;;;;;2587757;52;21102;-83
2022/04/24 00:59:35;;;;;;;7.22;5.25;;;14.20;49.70;;;;;;2580618;52;20927;-84
2022/04/24 01:02:04;;;;;;;7.37;5.43;;;14.20;49.50;;;;;;2594447;53;22154;-84
2022/04/24 01:04:33;;;;;;;8.20;5.30;;;14.20;49.70;;;;;;2593842;53;20952;-83
2022/04/24 01:06:59;;;;;;;8.85;5.53;;;14.30;49.70;;;;;;2348731;54;21004;-84
2022/04/24 01:09:26;;;;;;;8.55;5.40;;;14.30;49.70;;;;;;2593699;53;20984;-84
2022/04/24 01:11:53;;;;;;;9.13;6.57;;;14.20;49.70;;;;;;2593231;53;21841;-83
2022/04/24 01:14:21;;;;;;;9.57;5.95;;;14.30;50.00;;;;;;2347081;54;21557;-84
2022/04/24 01:16:48;;;;;;;7.80;5.82;;;14.30;50.00;;;;;;2564332;52;21049;-82
2022/04/24 01:19:14;;;;;;;6.90;5.18;;;14.30;50.10;;;;;;2593679;53;20943;-84
2022/04/24 01:21:41;;;;;;;8.57;5.15;;;14.40;50.20;;;;;;2593751;53;20940;-83
2022/04/24 01:24:08;;;;;;;7.43;5.07;;;14.40;50.20;;;;;;2349258;54;20920;-83
2022/04/24 01:26:35;;;;;;;10.50;6.45;;;14.40;50.30;;;;;;2349290;54;21723;-83
2022/04/24 01:29:02;;;;;;;9.15;6.95;;;14.40;50.30;;;;;;2349471;54;20951;-83
2022/04/24 01:31:28;;;;;;;8.93;6.70;;;14.40;50.40;;;;;;2596032;53;21719;-83
2022/04/24 01:33:55;;;;;;;9.10;6.95;;;14.40;50.40;;;;;;2595410;53;20992;-83
2022/04/24 01:36:21;;;;;;;9.77;7.25;;;14.50;50.60;;;;;;2349669;54;20971;-84
2022/04/24 01:38:47;;;;;;;10.52;7.22;;;14.50;50.60;;;;;;2595457;53;20998;-83
2022/04/24 01:41:14;;;;;;;11.25;7.82;;;14.50;50.60;;;;;;2595378;53;20980;-82
2022/04/24 01:43:41;;;;;;;10.13;6.97;;;14.50;50.70;;;;;;2349298;54;20927;-84
2022/04/24 01:46:08;;;;;;;10.25;7.30;;;14.50;50.70;;;;;;2587413;52;21502;-82
2022/04/24 01:48:34;;;;;;;10.70;7.12;;;14.60;50.80;;;;;;2575571;52;20964;-83
2022/04/24 01:51:04;;;;;;;10.13;7.95;;;14.60;50.70;;;;;;2595713;53;20987;-83
2022/04/24 01:53:31;;;;;;;11.48;7.28;;;14.60;50.90;;;;;;2567285;53;20988;-84
2022/04/24 01:55:58;;;;;;;10.60;7.62;;;14.60;50.80;;;;;;2349530;54;20915;-83
2022/04/24 01:58:25;;;;;;;11.23;7.57;;;14.60;50.90;;;;;;2595750;53;20924;-83
2022/04/24 02:00:52;;;;;;;10.52;7.85;;;14.60;50.90;;;;;;2348596;54;20948;-83
2022/04/24 02:03:19;;;;;;;11.70;7.30;;;14.60;50.90;;;;;;2571369;52;20995;-83
2022/04/24 02:05:46;;;;;;;12.23;8.50;;;14.60;51.00;;;;;;2592678;53;20915;-82
2022/04/24 02:08:13;;;;;;;9.98;7.55;;;14.60;51.10;;;;;;2596061;53;20947;-83
2022/04/24 02:10:39;;;;;;;12.35;9.13;;;14.70;51.20;;;;;;2595887;53;20936;-84
2022/04/24 02:13:05;;;;;;;11.15;7.62;;;14.70;51.50;;;;;;2595759;53;20956;-85
2022/04/24 02:15:33;;;;;;;11.23;6.47;;;14.60;51.30;;;;;;2349886;54;20940;-84
2022/04/24 02:17:59;;;;;;;8.45;5.55;;;14.70;51.50;;;;;;2595025;53;20968;-85
2022/04/24 02:20:26;;;;;;;6.03;4.37;;;14.70;51.50;;;;;;2594766;53;20924;-84
2022/04/24 02:22:55;;;;;;;11.98;3.30;;;14.70;51.60;;;;;;2594061;53;21043;-84
2022/04/24 02:25:21;;;;;;;4.28;2.60;;;14.60;51.40;;;;;;2349487;54;20947;-84
2022/04/24 02:27:48;;;;;;;4.87;2.78;;;14.70;51.40;;;;;;2596516;53;20936;-85
2022/04/24 02:30:15;;;;;;;3.95;2.30;;;14.60;51.30;;;;;;2330865;53;20962;-83
2022/04/24 02:32:42;;;;;;;4.05;1.95;;;14.60;51.50;;;;;;2596449;53;20948;-83
2022/04/24 02:35:08;;;;;;;3.42;1.65;;;14.60;51.30;;;;;;2589628;53;20963;-84
2022/04/24 02:37:35;;;;;;;3.12;1.30;;;14.60;51.30;;;;;;2321310;54;20972;-84
2022/04/24 02:40:01;;;;;;;2.12;1.12;;;14.70;51.40;;;;;;2579126;52;20913;-84
2022/04/24 02:42:27;;;;;;;2.67;1.20;;;14.60;51.30;;;;;;2348796;53;20936;-85
2022/04/24 02:44:54;;;;;;;2.65;1.10;;;14.60;51.20;;;;;;2576618;52;20937;-84
2022/04/24 02:47:21;;;;;;;3.45;1.33;;;14.50;51.10;;;;;;2339393;53;20991;-84
2022/04/24 02:49:47;;;;;;;2.95;1.42;;;14.50;51.10;;;;;;2340161;53;20968;-84
2022/04/24 02:52:13;;;;;;;2.62;1.20;;;14.50;51.20;;;;;;2581276;52;20998;-85
2022/04/24 02:54:40;;;;;;;2.50;1.02;;;14.50;51.20;;;;;;2576039;52;21727;-85
2022/04/24 02:57:07;;;;;;;4.45;1.20;;;14.40;51.30;;;;;;2574045;52;20972;-84
2022/04/24 02:59:34;;;;;;;2.10;0.73;;;14.40;51.50;;;;;;2596012;53;20948;-83
2022/04/24 03:02:01;;;;;;;2.10;0.80;;;14.30;51.60;;;;;;2595355;53;20908;-84
2022/04/24 03:04:28;;;;;;;1.50;0.60;;;14.30;51.80;;;;;;2593970;53;21031;-83
2022/04/24 03:06:55;;;;;;;1.00;0.47;;;14.20;51.80;;;;;;2570884;52;20944;-84
2022/04/24 03:09:21;;;;;;;1.48;0.45;;;14.10;51.80;;;;;;2596410;53;20900;-84
2022/04/24 03:11:48;;;;;;;1.35;0.47;;;14.00;51.80;;;;;;2595965;53;21023;-85
2022/04/24 03:14:15;;;;;;;0.45;0.20;;;13.90;51.90;;;;;;2349656;54;20928;-84
2022/04/24 03:16:42;;;;;;;2.05;0.40;;;13.80;52.20;;;;;;2595815;53;20979;-83
2022/04/24 03:19:08;;;;;;;1.20;0.30;;;13.60;52.10;;;;;;2596146;53;20924;-83
2022/04/24 03:21:35;;;;;;;0.95;0.30;;;13.60;52.30;;;;;;2565187;52;20912;-83
2022/04/24 03:24:02;;;;;;;1.67;0.40;;;13.50;52.60;;;;;;2333345;53;20987;-82
2022/04/24 03:26:29;;;;;;;1.08;0.30;;;13.50;52.60;;;;;;2591764;52;20949;-83
2022/04/24 03:28:56;;;;;;;0.55;0.40;;;13.40;53.00;;;;;;2581490;52;21600;-83
2022/04/24 03:31:24;;;;;;;0.37;0.20;;;13.30;53.50;;;;;;2582572;53;21776;-82
2022/04/24 03:33:52;;;;;;;0.20;0.20;;;13.20;53.30;;;;;;2595331;53;20908;-82
2022/04/24 03:36:19;;;;;;;1.00;0.20;;;13.20;53.50;;;;;;2596103;53;21196;-82
2022/04/24 03:38:45;;;;;;;0.95;0.30;;;13.10;53.60;;;;;;2595731;53;20920;-81
2022/04/24 03:41:12;;;;;;;1.92;0.28;;;13.00;53.50;;;;;;2595487;53;20940;-82
2022/04/24 03:43:38;;;;;;;0.43;0.28;;;13.00;53.70;;;;;;2595583;53;21019;-82
2022/04/24 03:46:05;;;;;;;0.98;0.25;;;12.90;53.70;;;;;;2595677;53;21471;-82
2022/04/24 03:48:32;;;;;;;1.37;0.30;;;12.90;53.70;;;;;;2595806;53;20927;-82
2022/04/24 03:50:59;;;;;;;0.20;0.20;;;12.80;53.60;;;;;;2580620;52;21020;-82
2022/04/24 03:53:25;;;;;;;0.40;0.20;;;12.80;53.80;;;;;;2582031;52;20927;-82
2022/04/24 03:55:51;;;;;;;0.30;0.20;;;12.80;53.80;;;;;;2595776;53;21460;-82
2022/04/24 03:58:18;;;;;;;1.27;0.20;;;12.80;54.00;;;;;;2348953;54;20991;-82
2022/04/24 04:00:45;;;;;;;0.13;0.13;;;12.70;53.90;;;;;;2595451;53;20988;-82
2022/04/24 04:03:11;;;;;;;1.55;0.30;;;12.70;53.80;;;;;;2595621;53;20967;-82
2022/04/24 04:05:38;;;;;;;1.27;0.30;;;12.70;54.10;;;;;;2595779;53;20955;-83
2022/04/24 04:08:05;;;;;;;1.17;0.35;;;12.70;54.10;;;;;;2347740;54;21042;-81
2022/04/24 04:10:31;;;;;;;1.30;0.20;;;12.60;54.20;;;;;;2593385;53;21043;-83
2022/04/24 04:12:58;;;;;;;0.62;0.22;;;12.60;54.50;;;;;;2325196;53;20935;-84
2022/04/24 04:15:25;;;;;;;1.48;0.30;;;12.70;54.60;;;;;;2566672;52;20943;-82
2022/04/24 04:17:51;;;;;;;0.50;0.20;;;12.50;54.80;;;;;;2592413;52;21004;-82
2022/04/24 04:20:18;;;;;;;1.27;0.30;;;12.50;54.90;;;;;;2593345;53;22164;-82
2022/04/24 04:22:51;;;;;;;1.17;0.30;;;12.40;54.60;;;;;;2592198;53;20968;-82
2022/04/24 04:25:21;;;;;;;0.50;0.22;;;12.40;54.60;;;;;;2350228;54;21039;-83
2022/04/24 04:27:48;;;;;;;0.65;0.30;;;12.40;54.80;;;;;;2343689;53;21101;-82
2022/04/24 04:30:14;;;;;;;1.83;0.37;;;12.40;55.10;;;;;;2585335;52;21038;-82
2022/04/24 04:32:40;;;;;;;0.43;0.20;;;12.30;54.80;;;;;;2352457;53;21286;-82
2022/04/24 04:35:09;;;;;;;0.32;0.20;;;12.30;54.90;;;;;;2594687;53;20987;-82
2022/04/24 04:37:36;;;;;;;0.40;0.20;;;12.30;54.90;;;;;;2594974;53;20928;-83
2022/04/24 04:40:05;;;;;;;0.20;0.20;;;12.30;54.90;;;;;;2596643;53;20947;-82
2022/04/24 04:42:32;;;;;;;0.88;0.30;;;12.30;54.90;;;;;;2331206;54;21015;-81
2022/04/24 04:45:00;;;;;;;1.05;0.37;;;12.30;54.90;;;;;;2586860;53;20971;-82
2022/04/24 04:47:27;;;;;;;0.10;0.10;;;12.30;54.90;;;;;;2595680;53;21047;-82
2022/04/24 04:49:54;;;;;;;1.12;0.20;;;12.30;55.00;;;;;;2595433;53;21985;-83
2022/04/24 04:52:21;;;;;;;0.22;0.22;;;12.30;55.00;;;;;;2348745;54;20927;-82
2022/04/24 04:54:48;;;;;;;1.65;0.22;;;12.30;55.00;;;;;;2566412;52;20952;-82
2022/04/24 04:57:14;;;;;;;0.35;0.22;;;12.30;55.00;;;;;;2352348;54;20958;-82
2022/04/24 04:59:41;;;;;;;1.02;0.10;;;12.30;55.00;;;;;;2568663;52;20932;-82
2022/04/24 05:02:08;;;;;;;0.43;0.28;;;12.40;55.10;;;;;;2595881;53;20877;-82
2022/04/24 05:04:35;;;;;;;0.30;0.20;;;12.40;55.30;;;;;;2595706;53;20915;-83
2022/04/24 05:07:02;;;;;;;0.22;0.20;;;12.40;55.20;;;;;;2595006;53;20904;-83
2022/04/24 05:09:29;;;;;;;0.10;0.10;;;12.40;55.00;;;;;;2593910;53;20970;-82
2022/04/24 05:11:55;;;;;;;0.37;0.10;;;12.40;55.10;;;;;;2590166;53;20971;-82
2022/04/24 05:14:22;;;;;;;0.10;0.10;;;12.40;55.00;;;;;;2573768;52;21008;-82
2022/04/24 05:16:48;;;;;;;0.40;0.20;;;12.40;54.90;;;;;;2593247;52;20924;-82
2022/04/24 05:19:14;;;;;;;0.30;0.20;;;12.40;54.90;;;;;;2593651;53;20996;-82
2022/04/24 05:21:41;;;;;;;0.37;0.20;;;12.50;55.00;;;;;;2327549;53;21030;-82
2022/04/24 05:24:07;;;;;;;0.30;0.20;;;12.50;55.00;;;;;;2591150;52;21605;-81
2022/04/24 05:26:34;;;;;;;0.10;0.10;;;12.50;55.00;;;;;;2344642;53;21057;-83
2022/04/24 05:29:01;;;;;;;0.73;0.17;;;12.50;54.90;;;;;;2593050;52;21023;-82
2022/04/24 05:31:27;;;;;;;0.22;0.20;;;12.50;54.90;;;;;;2346637;54;20985;-83
2022/04/24 05:33:55;;;;;;;0.20;0.20;;;12.50;54.90;;;;;;2593556;53;20963;-83
2022/04/24 05:36:21;;;;;;;0.10;0.10;;;12.50;54.90;;;;;;2567412;53;20968;-82
2022/04/24 05:38:47;;;;;;;0.20;0.20;;;12.50;55.00;;;;;;2566415;52;20951;-83
2022/04/24 05:41:14;;;;;;;0.52;0.10;;;12.60;55.00;;;;;;2587956;52;21833;-82
2022/04/24 05:43:41;;;;;;;0.17;0.17;;;12.60;55.10;;;;;;2591271;53;21015;-82
2022/04/24 05:46:10;;;;;;;0.20;0.10;;;12.60;55.00;;;;;;2592141;53;20979;-82
2022/04/24 05:48:37;;;;;;;0.37;0.20;;;12.70;54.80;;;;;;2592117;53;20969;-82
2022/04/24 05:51:03;;;;;;;0.10;0.10;;;12.60;54.90;;;;;;2568237;52;20944;-82
2022/04/24 05:53:30;;;;;;;0.20;0.20;;;12.70;55.00;;;;;;2584256;52;20972;-83
2022/04/24 05:55:57;;;;;;;0.47;0.20;;;12.70;55.00;;;;;;2590677;53;21522;-82
2022/04/24 05:58:24;;;;;;;1.60;0.20;;;12.80;55.10;;;;;;2591932;53;21012;-82
2022/04/24 06:00:50;;;;;;;0.35;0.20;;;12.70;55.00;;;;;;2592146;53;20944;-84
2022/04/24 06:03:16;;;;;;;0.17;0.17;;;12.80;55.00;;;;;;2591984;53;21080;-83
2022/04/24 06:05:45;;;;;;;0.20;0.20;;;12.80;55.00;;;;;;2590896;53;21218;-83
2022/04/24 06:08:13;;;;;;;0.37;0.20;;;12.90;55.20;;;;;;2566472;52;20968;-83
2022/04/24 06:10:39;;;;;;;0.70;0.20;;;12.90;55.10;;;;;;2345852;54;21012;-83
2022/04/24 06:13:05;;;;;;;1.35;0.28;;;12.90;55.00;;;;;;2591051;53;21131;-83
2022/04/24 06:15:32;;;;;;;0.17;0.13;;;12.90;55.00;;;;;;2572234;52;21407;-84
2022/04/24 06:17:58;;;;;;;0.35;0.20;;;12.90;55.00;;;;;;2584386;52;20944;-83
2022/04/24 06:20:26;;;;;;;0.60;0.22;;;12.90;54.90;;;;;;2588431;53;21583;-83
2022/04/24 06:22:54;;;;;;;1.37;0.20;;;12.90;55.00;;;;;;2568476;52;21555;-84
2022/04/24 06:25:22;;;;;;;0.93;0.20;;;13.00;55.10;;;;;;2581558;52;20996;-83
2022/04/24 06:27:49;;;;;;;0.57;0.20;;;12.90;55.00;;;;;;2585554;52;20987;-83
2022/04/24 06:30:16;;;;;;;0.25;0.10;;;13.00;55.00;;;;;;2577647;52;21016;-85
2022/04/24 06:32:43;;;;;;;0.40;0.20;;;13.00;55.00;;;;;;2591531;53;20965;-84
2022/04/24 06:35:11;;;;;;;0.40;0.20;;;13.00;55.00;;;;;;2349416;53;20980;-84
2022/04/24 06:37:38;;;;;;;0.65;0.30;;;13.00;55.10;;;;;;2594283;52;20952;-84
2022/04/24 06:40:08;;;;;;;1.37;0.28;;;13.00;55.00;;;;;;2348326;54;20991;-84
2022/04/24 06:42:35;;;;;;;0.35;0.20;;;13.00;55.10;;;;;;2593902;53;21239;-83
2022/04/24 06:45:02;;;;;;;0.20;0.20;;;13.00;55.00;;;;;;2593060;53;21415;-84
2022/04/24 06:47:29;;;;;;;0.60;0.28;;;13.00;55.00;;;;;;2591533;53;20932;-84
2022/04/24 06:49:55;;;;;;;0.25;0.20;;;13.10;55.10;;;;;;2576402;52;21007;-84
2022/04/24 06:52:22;;;;;;;0.45;0.20;;;13.10;55.10;;;;;;2580742;52;20924;-83
2022/04/24 06:54:48;;;;;;;0.50;0.30;;;13.10;55.10;;;;;;2338112;53;20923;-83
2022/04/24 06:57:15;;;;;;;0.22;0.20;;;13.10;55.20;;;;;;2578939;52;21046;-83
2022/04/24 06:59:41;;;;;;;0.88;0.40;;;13.10;55.20;;;;;;2592801;53;20999;-84
2022/04/24 07:02:08;;;;;;;0.82;0.20;;;13.10;55.10;;;;;;2580277;52;21412;-84
2022/04/24 07:04:35;;;;;;;0.10;0.10;;;13.10;55.10;;;;;;2333697;53;20975;-84
2022/04/24 07:07:01;;;;;;;0.22;0.10;;;13.20;55.10;;;;;;2591257;53;21576;-83
2022/04/24 07:09:29;;;;;;;0.28;0.17;;;13.20;55.10;;;;;;2345690;54;20959;-86
2022/04/24 07:11:55;;;;;;;0.80;0.20;;;13.20;55.20;;;;;;2590926;53;20912;-86
2022/04/24 07:14:22;;;;;;;0.40;0.20;;;13.20;55.20;;;;;;2589793;53;20917;-83
2022/04/24 07:16:49;;;;;;;0.40;0.15;;;13.20;55.20;;;;;;2562995;52;20916;-84
2022/04/24 07:19:15;;;;;;;0.73;0.13;;;13.20;55.30;;;;;;2591842;53;21365;-84
2022/04/24 07:21:42;;;;;;;0.17;0.10;;;13.20;55.30;;;;;;2591596;53;20908;-83
2022/04/24 07:24:08;;;;;;;0.10;0.10;;;13.30;55.50;;;;;;2590443;53;21576;-84
2022/04/24 07:26:35;;;;;;;0.98;0.30;;;13.30;55.60;;;;;;2591379;53;20924;-85
2022/04/24 07:29:01;;;;;;;0.40;0.20;;;13.40;55.60;;;;;;2345408;54;20976;-82
2022/04/24 07:31:28;;;;;;;0.52;0.20;;;13.40;55.50;;;;;;2590935;53;20988;-84
2022/04/24 07:33:56;;;;;;;0.20;0.20;;;13.50;55.60;;;;;;2589900;53;21455;-83
2022/04/24 07:36:23;;;;;;;1.85;0.47;;;13.50;55.50;;;;;;2591015;53;20987;-83
2022/04/24 07:38:50;;;;;;;0.88;0.20;;;13.50;55.40;;;;;;2591904;53;20920;-84
2022/04/24 07:41:17;;;;;;;0.30;0.20;;;13.60;55.40;;;;;;2591019;53;20936;-85
2022/04/24 07:43:48;;;;;;;1.35;0.50;;;13.60;55.30;;;;;;2578351;53;20911;-84
2022/04/24 07:46:15;;;;;;;1.70;0.57;;;13.70;55.30;;;;;;2549742;53;22101;-83
2022/04/24 07:48:42;;;;;;;0.82;0.40;;;13.70;55.30;;;;;;2346797;54;20916;-83
2022/04/24 07:51:08;;;;;;;1.87;0.60;;;13.70;55.20;;;;;;2592135;53;20972;-83
2022/04/24 07:53:35;;;;;;;0.85;0.35;;;13.70;55.30;;;;;;2591525;53;20996;-82
2022/04/24 07:56:01;;;;;;;0.70;0.40;;;13.70;55.30;;;;;;2592403;53;20915;-83
2022/04/24 07:58:32;;;;;;;0.85;0.37;;;13.70;55.30;;;;;;2345136;54;20932;-82
2022/04/24 08:00:58;;;;;;;0.32;0.25;;;13.80;55.30;;;;;;2590297;53;20920;-83
2022/04/24 08:03:25;;;;;;;0.15;0.15;;;13.80;55.30;;;;;;2590935;53;20948;-82
2022/04/24 08:05:51;;;;;;;0.13;0.10;;;13.80;55.30;;;;;;2590704;53;21756;-83
2022/04/24 08:08:20;;;;;;;1.35;0.40;;;13.80;55.40;;;;;;2590553;53;20943;-82
2022/04/24 08:11:24;;;;;;;0.57;0.40;;;13.80;55.40;;;;;;2561946;53;20995;-82
2022/04/24 08:13:50;;;;;;;2.45;0.93;;;13.90;55.50;;;;;;2589765;53;21781;-82
2022/04/24 08:16:17;;;;;;;1.67;0.70;;;14.00;55.50;;;;;;2590376;53;21008;-81
2022/04/24 08:18:44;;;;;;;1.33;0.55;;;14.00;55.60;;;;;;2590400;53;20912;-82
2022/04/24 08:21:11;;;;;;;1.50;0.60;;;14.00;55.60;;;;;;2589911;53;20900;-83
2022/04/24 08:23:37;;;;;;;2.58;1.48;;;14.10;55.50;;;;;;2589746;53;21917;-83
2022/04/24 08:26:06;;;;;;;4.62;3.20;;;14.10;55.40;;;;;;2579937;52;21015;-81
2022/04/24 08:28:32;;;;;;;3.37;2.25;;;14.10;55.40;;;;;;2572363;52;20912;-83
2022/04/24 08:30:59;;;;;;;2.15;1.20;;;14.20;55.40;;;;;;2589185;53;21416;-83
2022/04/24 08:33:25;;;;;;;1.40;0.70;;;14.20;55.40;;;;;;2589485;53;20936;-82
2022/04/24 08:35:52;;;;;;;3.30;0.70;;;14.20;55.30;;;;;;2562211;52;21541;-83
2022/04/24 08:38:19;;;;;;;0.47;0.35;;;14.30;55.30;;;;;;2570317;52;21012;-82
2022/04/24 08:40:46;;;;;;;0.60;0.40;;;14.30;55.30;;;;;;2564679;52;21925;-83
2022/04/24 08:43:15;;;;;;;0.82;0.30;;;14.30;55.30;;;;;;2588982;52;20971;-83
2022/04/24 08:45:42;;;;;;;0.57;0.20;;;14.40;55.40;;;;;;2590231;53;20912;-82
2022/04/24 08:48:09;;;;;;;0.50;0.30;;;14.40;55.30;;;;;;2590076;53;20996;-82
2022/04/24 08:50:35;;;;;;;0.50;0.30;;;14.40;55.40;;;;;;2590003;53;20928;-82
2022/04/24 08:53:01;;;;;;;0.30;0.30;;;14.40;55.30;;;;;;2588916;53;20976;-82
2022/04/24 08:55:29;;;;;;;0.55;0.25;;;14.50;55.30;;;;;;2590678;53;20944;-83
2022/04/24 08:57:56;;;;;;;0.62;0.32;;;14.50;55.30;;;;;;2311626;54;21940;-83
2022/04/24 09:00:23;;;;;;;0.43;0.30;;;14.50;55.30;;;;;;2581657;53;20916;-82
2022/04/24 09:02:50;;;;;;;1.45;0.50;;;14.50;55.40;;;;;;2589910;53;20897;-82
2022/04/24 09:05:16;;;;;;;1.27;0.60;;;14.50;55.40;;;;;;2589880;53;21509;-82
2022/04/24 09:07:43;;;;;;;1.55;0.50;;;14.60;55.40;;;;;;2589389;53;20920;-82
2022/04/24 09:10:22;;;;;;;1.15;0.32;;;14.60;55.40;;;;;;2344176;54;20932;-84
2022/04/24 09:12:53;;;;;;;0.62;0.32;;;14.60;55.40;;;;;;2589112;53;20936;-83
2022/04/24 09:15:19;;;;;;;1.02;0.55;;;14.70;55.50;;;;;;2344054;54;20955;-84
2022/04/24 09:17:45;;;;;;;1.35;0.40;;;14.70;55.40;;;;;;2589524;53;20983;-83
2022/04/24 09:20:19;;;;;;;2.05;0.30;;;14.70;55.40;;;;;;2589762;53;20988;-83
2022/04/24 09:22:47;;;;;;;0.25;0.20;;;14.70;55.50;;;;;;2589441;53;20952;-83
2022/04/24 09:25:13;;;;;;;1.08;0.30;;;14.70;55.30;;;;;;2590021;53;20947;-84
2022/04/24 09:27:40;;;;;;;1.00;0.40;;;14.80;55.30;;;;;;2347053;54;20947;-84
2022/04/24 09:30:14;;;;;;;0.73;0.30;;;14.90;55.40;;;;;;2562108;52;20968;-84
2022/04/24 09:32:48;;;;;;;1.27;0.60;;;14.80;55.60;;;;;;2343913;54;21843;-84
2022/04/24 09:35:31;;;;;;;1.15;0.60;;;14.80;55.50;;;;;;2344371;54;20980;-83
2022/04/24 09:38:13;;;;;;;0.82;0.30;;;14.90;55.60;;;;;;2589050;53;20972;-84
2022/04/24 09:40:45;;;;;;;2.17;0.55;;;14.90;55.40;;;;;;2588914;53;21521;-84
2022/04/24 09:43:12;;;;;;;0.90;0.40;;;14.90;55.30;;;;;;2344075;54;20955;-83
2022/04/24 09:45:40;;;;;;;1.55;0.68;;;14.90;55.70;;;;;;2330734;53;20943;-84
2022/04/24 09:48:14;;;;;;;0.98;0.40;;;14.90;55.30;;;;;;2585290;53;21027;-83
2022/04/24 09:50:41;;;;;;;0.77;0.40;;;14.90;55.40;;;;;;2344433;54;20912;-84
2022/04/24 09:53:11;;;;;;;1.30;0.50;;;14.90;55.60;;;;;;2344021;54;20959;-83
2022/04/24 09:55:39;;;;;;;2.00;0.70;;;14.90;55.70;;;;;;2588215;53;20972;-83
2022/04/24 09:58:07;;;;;;;1.73;0.70;;;14.90;55.60;;;;;;2589258;53;20919;-84
2022/04/24 10:00:34;;;;;;;1.08;0.50;;;14.90;55.70;;;;;;2343016;54;21011;-83
2022/04/24 10:03:04;;;;;;;2.28;0.70;;;15.00;55.80;;;;;;2326276;53;21703;-84
2022/04/24 10:05:31;;;;;;;2.22;0.80;;;15.10;56.00;;;;;;2584438;53;21587;-83
2022/04/24 10:07:59;;;;;;;2.25;0.60;;;15.00;55.80;;;;;;2566341;52;21150;-83
2022/04/24 10:10:25;;;;;;;1.62;0.60;;;15.00;55.80;;;;;;2344468;54;20975;-83
2022/04/24 10:12:51;;;;;;;3.55;0.60;;;15.10;55.80;;;;;;2340994;54;21023;-83
2022/04/24 10:15:18;;;;;;;1.30;0.60;;;15.10;55.80;;;;;;2562992;52;20935;-84
2022/04/24 10:18:30;;;;;;;1.35;0.60;;;15.10;55.80;;;;;;2588356;53;20928;-84
2022/04/24 10:21:23;;;;;;;1.58;0.65;;;15.10;56.30;;;;;;2334423;53;21363;-84
2022/04/24 10:23:49;;;;;;;1.37;0.60;;;15.10;56.30;;;;;;2321783;53;21580;-84
2022/04/24 10:26:22;;;;;;;1.75;0.62;;;15.10;55.80;;;;;;2583777;53;20928;-83
2022/04/24 10:28:49;;;;;;;1.62;0.50;;;15.20;56.10;;;;;;2334848;53;21042;-83
2022/04/24 10:31:16;;;;;;;1.48;0.70;;;15.10;56.00;;;;;;2576247;52;21027;-85
2022/04/24 10:33:54;;;;;;;1.17;0.50;;;15.20;56.10;;;;;;2560882;52;21521;-83
2022/04/24 10:36:20;;;;;;;1.52;0.60;;;15.20;56.30;;;;;;2589171;53;20967;-83
2022/04/24 10:38:54;;;;;;;1.90;0.77;;;15.20;56.00;;;;;;2561682;52;20907;-83
2022/04/24 10:41:30;;;;;;;1.92;0.73;;;15.30;56.50;;;;;;2590100;53;20988;-84
2022/04/24 10:44:12;;;;;;;1.30;0.60;;;15.20;56.20;;;;;;2344256;54;20920;-82
2022/04/24 10:46:39;;;;;;;1.45;0.60;;;15.20;56.60;;;;;;2561356;52;21011;-83
2022/04/24 10:49:16;;;;;;;1.73;0.60;;;15.20;56.30;;;;;;2334738;53;22092;-83
2022/04/24 10:51:43;;;;;;;1.80;0.60;;;15.30;56.60;;;;;;2561939;53;20936;-84
2022/04/24 10:54:14;;;;;;;1.80;0.77;;;15.30;56.30;;;;;;2588404;53;20952;-83
2022/04/24 10:56:41;;;;;;;1.75;0.80;;;15.30;56.30;;;;;;2589558;53;21278;-84
2022/04/24 10:59:16;;;;;;;1.80;0.82;;;15.30;56.40;;;;;;2589027;53;21411;-84
2022/04/24 11:01:47;;;;;;;1.87;0.75;;;15.30;56.50;;;;;;2346164;54;20984;-84
2022/04/24 11:04:14;;;;;;;3.37;0.70;;;15.30;56.40;;;;;;2589202;53;21848;-84
2022/04/24 11:06:57;;;;;;;1.92;0.90;;;15.30;56.40;;;;;;2589259;53;20912;-84
2022/04/24 11:09:30;;;;;;;1.55;0.60;;;15.30;56.80;;;;;;2588941;53;21360;-84
2022/04/24 11:12:01;;;;;;;1.10;0.60;;;15.30;56.30;;;;;;2344479;54;20971;-83
2022/04/24 11:14:28;;;;;;;1.15;0.52;;;15.30;56.40;;;;;;2335547;53;21020;-84
2022/04/24 11:16:58;;;;;;;2.15;0.60;;;15.30;56.20;;;;;;2578908;52;20907;-83
2022/04/24 11:19:26;;;;;;;1.15;0.57;;;15.30;56.20;;;;;;2591218;53;20927;-83
2022/04/24 11:22:02;;;;;;;1.35;0.50;;;15.30;56.10;;;;;;2591270;53;21730;-84
2022/04/24 11:24:34;;;;;;;1.42;0.70;;;15.30;56.20;;;;;;2581389;52;21684;-84
2022/04/24 11:27:11;;;;;;;3.53;0.70;;;15.30;56.20;;;;;;2345027;53;20999;-83
2022/04/24 11:29:38;;;;;;;0.85;0.40;;;15.30;56.20;;;;;;2345860;54;20999;-86
2022/04/24 11:32:07;;;;;;;2.20;0.60;;;15.30;56.10;;;;;;2590804;53;20967;-84
2022/04/24 11:34:34;;;;;;;1.15;0.52;;;15.20;56.20;;;;;;2591127;53;20994;-86
2022/04/24 11:37:01;;;;;;;1.87;0.70;;;15.20;56.20;;;;;;2590965;53;20927;-84
2022/04/24 11:39:29;;;;;;;2.05;0.80;;;15.20;56.20;;;;;;2591227;53;21004;-83
2022/04/24 11:42:00;;;;;;;1.27;0.60;;;15.30;56.30;;;;;;2591216;53;20924;-83
2022/04/24 11:50:14;;;;;;;;;;;15.30;56.70;;;;;;2580050;52;20431;-84
2022/04/24 11:53:10;;;;;;;;;;;15.30;56.30;;;;;;2590952;52;20090;-84
2022/04/24 11:58:23;;;;;;;;;;;15.50;56.30;;;;;;2562744;52;20051;-83
2022/04/24 12:00:49;;;;;;;;;;;15.50;56.20;;;;;;2565870;52;20126;-84
2022/04/24 12:03:15;;;;;;;;;;;15.50;56.10;;;;;;2339341;53;20144;-84
2022/04/24 12:05:42;;;;;;;;;;;15.60;56.10;;;;;;2585213;52;20103;-84
2022/04/24 12:08:11;;;;;;;;;;;15.60;56.00;;;;;;2348227;54;20114;-82
2022/04/24 12:10:42;;;;;;;;;;;15.60;56.30;;;;;;2347393;54;20466;-82
2022/04/24 12:13:09;;;;;;;;;;;15.70;56.00;;;;;;2568822;52;20119;-84
2022/04/24 12:15:35;;;;;;;;;;;15.70;55.90;;;;;;2588338;52;20050;-84
2022/04/24 12:18:03;;;;;;;;;;;15.70;55.70;;;;;;2347252;54;20134;-83
2022/04/24 12:20:36;;;;;;;;;;;15.80;55.80;;;;;;2593498;53;20942;-85
2022/04/24 12:23:11;;;;;;;;;;;15.80;55.70;;;;;;2592930;53;20134;-84
2022/04/24 12:25:52;;;;;;;;;;;15.80;55.60;;;;;;2593520;53;20167;-83
2022/04/24 12:28:40;;;;;;;;;;;15.80;55.50;;;;;;2592712;53;20094;-84
2022/04/24 12:31:07;;;;;;;;;;;15.80;55.50;;;;;;2592314;53;20318;-84
2022/04/24 12:33:45;;;;;;;;;;;15.80;55.40;;;;;;2592659;53;20127;-85
2022/04/24 12:36:15;;;;;;;;;;;15.80;55.40;;;;;;2348176;54;20138;-84
2022/04/24 12:38:52;;;;;;;;;;;15.90;55.50;;;;;;2593317;53;20090;-84
2022/04/24 12:41:21;;;;;;;;;;;15.80;55.40;;;;;;2347793;54;20066;-83
2022/04/24 12:43:47;;;;;;;;;;;15.80;55.30;;;;;;2593327;53;20162;-85
2022/04/24 12:46:14;;;;;;;;;;;15.70;55.10;;;;;;2585069;53;20064;-84
2022/04/24 12:48:50;;;;;;;;;;;15.70;55.00;;;;;;2574775;52;20280;-85
2022/04/24 12:51:17;;;;;;;;;;;15.60;55.00;;;;;;2593728;53;20547;-82
2022/04/24 12:53:43;;;;;;;;;;;15.60;55.00;;;;;;2592647;53;20059;-84
2022/04/24 12:56:09;;;;;;;;;;;15.60;55.50;;;;;;2593541;53;20071;-84
2022/04/24 12:58:38;;;;;;;;;;;15.60;55.00;;;;;;2349322;54;20113;-85
2022/04/24 13:01:05;;;;;;;;;;;15.50;55.00;;;;;;2325406;53;20149;-83
2022/04/24 13:03:35;;;;;;;;;;;15.50;55.10;;;;;;2593697;53;20091;-83
2022/04/24 13:06:01;;;;;;;;;;;15.50;55.20;;;;;;2592895;53;20110;-84
2022/04/24 13:08:27;;;;;;;;;;;15.50;55.30;;;;;;2594020;53;20262;-82